Time;durP1;ratioP1;P1;durP2;ratioP2;P2;SDS_P1;SDS_P2;PMS_P1;PMS_P2;Temp;Humidity;BMP_temperature;BMP_pressure;BME280_temperature;BME280_humidity;BME280_pressure;Samples;Min_cycle;Max_cycle;Signal;HPM_P1;HPM_P2
2023/05/03 00:01:48;;;;;;;10.05;4.88;;;;;;;5.89;87.41;102544.44;5006624;28;20026;-69
2023/05/03 00:04:17;;;;;;;10.65;5.57;;;;;;;5.82;88.13;102539.63;5004159;28;20559;-70
2023/05/03 00:06:43;;;;;;;7.38;4.60;;;;;;;5.71;88.07;102530.78;5003130;28;20048;-69
2023/05/03 00:09:09;;;;;;;9.45;4.75;;;;;;;5.56;88.59;102540.19;4989504;28;20132;-69
2023/05/03 00:11:35;;;;;;;13.23;5.30;;;;;;;5.43;88.77;102537.41;4984496;28;20083;-69
2023/05/03 00:14:01;;;;;;;10.82;5.43;;;;;;;5.36;89.65;102539.44;5005330;28;20069;-69
2023/05/03 00:16:26;;;;;;;8.52;5.15;;;;;;;5.37;90.00;102546.28;5003197;28;20030;-69
2023/05/03 00:18:52;;;;;;;12.23;5.88;;;;;;;5.40;90.08;102540.13;4986824;28;21552;-69
2023/05/03 00:21:17;;;;;;;11.65;5.28;;;;;;;5.42;89.66;102541.69;5004487;28;20160;-69
2023/05/03 00:23:42;;;;;;;13.32;5.78;;;;;;;5.39;89.35;102548.78;4999706;28;20066;-69
2023/05/03 00:26:08;;;;;;;15.60;5.25;;;;;;;5.34;89.72;102545.59;5000433;28;20040;-69
2023/05/03 00:28:36;;;;;;;12.35;5.45;;;;;;;5.31;90.38;102540.59;4969212;28;20038;-69
2023/05/03 00:31:09;;;;;;;10.95;5.55;;;;;;;5.29;90.55;102535.53;4987277;28;20058;-69
2023/05/03 00:33:35;;;;;;;12.93;5.72;;;;;;;5.26;90.44;102536.53;4985435;28;20042;-69
2023/05/03 00:36:08;;;;;;;12.82;6.38;;;;;;;5.24;91.03;102532.38;4989012;28;20113;-69
2023/05/03 00:38:34;;;;;;;11.20;5.82;;;;;;;5.22;90.92;102529.06;4996881;28;20057;-69
2023/05/03 00:41:02;;;;;;;12.07;6.18;;;;;;;5.20;90.67;102528.31;5007383;28;20034;-69
2023/05/03 00:43:31;;;;;;;11.85;5.80;;;;;;;5.20;90.42;102523.16;5001966;28;20128;-69
2023/05/03 00:45:57;;;;;;;10.55;5.47;;;;;;;5.19;90.74;102532.59;5005766;28;20112;-68
2023/05/03 00:48:23;;;;;;;12.25;5.95;;;;;;;5.17;90.82;102531.84;5003690;28;20503;-69
2023/05/03 00:50:49;;;;;;;12.82;6.10;;;;;;;5.16;91.06;102529.34;4989112;28;20033;-69
2023/05/03 00:53:15;;;;;;;12.32;5.55;;;;;;;5.12;91.20;102530.44;5003060;28;20085;-69
2023/05/03 00:55:42;;;;;;;11.82;6.43;;;;;;;5.09;91.43;102530.59;4988774;28;20030;-70
2023/05/03 00:58:07;;;;;;;11.18;6.15;;;;;;;5.05;91.53;102538.47;4985877;28;20046;-69
2023/05/03 01:00:33;;;;;;;10.43;6.03;;;;;;;5.02;91.65;102530.88;5005923;28;20049;-69
2023/05/03 01:02:58;;;;;;;8.70;5.60;;;;;;;4.97;91.77;102525.16;5004032;28;20033;-69
2023/05/03 01:05:30;;;;;;;9.88;6.22;;;;;;;4.93;92.04;102533.09;4983583;28;20034;-69
2023/05/03 01:08:02;;;;;;;11.68;6.07;;;;;;;4.91;92.35;102532.34;5002996;28;20036;-69
2023/05/03 01:10:37;;;;;;;13.00;6.82;;;;;;;4.87;91.85;102532.50;5000864;28;20083;-69
2023/05/03 01:13:23;;;;;;;13.85;5.93;;;;;;;4.85;92.45;102530.91;5000865;28;20090;-69
2023/05/03 01:16:00;;;;;;;14.75;7.15;;;;;;;4.80;91.96;102535.44;5004954;28;20480;-69
2023/05/03 01:18:32;;;;;;;14.45;6.13;;;;;;;4.76;92.60;102539.91;5005505;28;20124;-69
2023/05/03 01:21:00;;;;;;;11.15;6.30;;;;;;;4.74;92.81;102528.88;5007785;28;20623;-69
2023/05/03 01:23:50;;;;;;;9.43;5.78;;;;;;;4.72;92.39;102529.84;4988222;28;20068;-69
2023/05/03 01:26:21;;;;;;;10.88;5.90;;;;;;;4.70;92.22;102531.66;5006675;28;20097;-69
2023/05/03 01:28:47;;;;;;;14.57;6.68;;;;;;;4.64;92.18;102531.06;5004983;28;20068;-69
2023/05/03 01:31:20;;;;;;;10.82;5.85;;;;;;;4.61;92.50;102535.50;5005837;28;20057;-69
2023/05/03 01:34:30;;;;;;;10.93;5.53;;;;;;;4.59;93.03;102539.91;4988606;28;20049;-69
2023/05/03 01:36:58;;;;;;;11.75;5.55;;;;;;;4.57;92.52;102541.72;4932922;29;20541;-69
2023/05/03 01:39:34;;;;;;;10.88;6.28;;;;;;;4.54;92.84;102540.13;4927333;28;20129;-69
2023/05/03 01:42:02;;;;;;;13.23;5.68;;;;;;;4.51;92.33;102535.13;4970678;28;20540;-68
2023/05/03 01:44:29;;;;;;;10.43;6.13;;;;;;;4.47;92.83;102539.59;4998595;28;20977;-69
2023/05/03 01:46:56;;;;;;;10.68;6.18;;;;;;;4.45;92.79;102535.44;4986421;28;20603;-69
2023/05/03 01:49:21;;;;;;;12.75;6.18;;;;;;;4.43;92.76;102547.53;4983390;28;20378;-69
2023/05/03 01:51:47;;;;;;;12.52;6.30;;;;;;;4.40;93.26;102543.34;4987436;28;20041;-69
2023/05/03 01:54:12;;;;;;;10.45;6.53;;;;;;;4.37;93.33;102547.78;4997889;28;20094;-69
2023/05/03 01:56:38;;;;;;;11.77;6.15;;;;;;;4.32;93.36;102545.47;5003842;28;20088;-69
2023/05/03 01:59:04;;;;;;;14.48;6.72;;;;;;;4.30;93.41;102544.69;4982508;28;20042;-69
2023/05/03 02:01:29;;;;;;;10.50;5.57;;;;;;;4.29;93.77;102548.16;4988980;28;20038;-69
2023/05/03 02:03:55;;;;;;;13.73;6.57;;;;;;;4.27;93.93;102557.69;4987405;28;20096;-68
2023/05/03 02:06:20;;;;;;;10.75;6.10;;;;;;;4.23;93.75;102556.97;5003319;28;20511;-69
2023/05/03 02:08:46;;;;;;;10.68;6.18;;;;;;;4.21;93.48;102556.22;4985988;28;20044;-69
2023/05/03 02:11:11;;;;;;;12.43;5.90;;;;;;;4.18;94.02;102568.38;4986663;28;20412;-69
2023/05/03 02:13:38;;;;;;;14.15;6.05;;;;;;;4.14;93.85;102572.81;4970156;28;20296;-69
2023/05/03 02:16:03;;;;;;;15.40;6.65;;;;;;;4.11;93.98;102578.09;4984427;28;20044;-68
2023/05/03 02:18:32;;;;;;;12.77;7.15;;;;;;;4.06;94.21;102578.31;5001938;28;20150;-69
2023/05/03 02:20:58;;;;;;;11.60;6.35;;;;;;;4.04;94.61;102587.00;5002343;28;20037;-69
2023/05/03 02:23:23;;;;;;;12.68;6.30;;;;;;;4.02;94.49;102583.66;4984812;28;20042;-69
2023/05/03 02:25:49;;;;;;;17.17;6.35;;;;;;;3.97;95.05;102577.91;4971808;28;20888;-69
2023/05/03 02:28:14;;;;;;;14.13;5.93;;;;;;;3.94;95.12;102573.75;5004233;28;20413;-69
2023/05/03 02:30:41;;;;;;;13.05;6.28;;;;;;;3.92;95.51;102575.56;4988530;28;20477;-69
2023/05/03 02:33:06;;;;;;;17.25;7.85;;;;;;;3.91;95.55;102573.88;4986896;28;20041;-69
2023/05/03 02:35:32;;;;;;;13.82;6.72;;;;;;;3.88;95.80;102574.84;4986348;28;20044;-69
2023/05/03 02:37:58;;;;;;;11.02;6.40;;;;;;;3.84;95.78;102573.34;4987121;28;20081;-68
2023/05/03 02:40:24;;;;;;;12.43;6.78;;;;;;;3.82;95.78;102581.97;4987992;28;20112;-69
2023/05/03 02:42:50;;;;;;;12.38;6.65;;;;;;;3.80;95.79;102573.53;4987160;28;20037;-69
2023/05/03 02:45:23;;;;;;;13.07;6.82;;;;;;;3.78;96.03;102576.16;4999668;28;20695;-69
2023/05/03 02:47:48;;;;;;;13.63;6.30;;;;;;;3.76;96.11;102574.56;4987258;28;20160;-69
2023/05/03 02:50:14;;;;;;;11.88;6.05;;;;;;;3.76;96.15;102579.69;5003696;28;20026;-69
2023/05/03 02:52:40;;;;;;;14.57;6.85;;;;;;;3.74;95.85;102568.66;5002307;28;20045;-68
2023/05/03 02:55:06;;;;;;;12.75;6.65;;;;;;;3.70;95.64;102563.66;4986416;28;20053;-69
2023/05/03 02:57:32;;;;;;;15.10;7.75;;;;;;;3.68;96.11;102570.59;5004753;28;20030;-69
2023/05/03 02:59:57;;;;;;;12.20;6.30;;;;;;;3.66;96.11;102564.72;4985735;28;20042;-69
2023/05/03 03:02:25;;;;;;;10.55;5.63;;;;;;;3.63;96.02;102559.69;4988177;28;20033;-69
2023/05/03 03:04:50;;;;;;;11.50;6.65;;;;;;;3.61;95.97;102555.53;4986935;28;20038;-68
2023/05/03 03:07:16;;;;;;;14.02;7.00;;;;;;;3.59;96.07;102558.16;4988566;28;20053;-69
2023/05/03 03:09:41;;;;;;;12.82;6.55;;;;;;;3.55;95.93;102548.94;4984310;28;20050;-69
2023/05/03 03:12:07;;;;;;;17.02;7.15;;;;;;;3.50;96.04;102545.75;5001042;28;20566;-69
2023/05/03 03:14:33;;;;;;;10.43;5.90;;;;;;;3.48;96.12;102547.53;5003405;28;20042;-69
2023/05/03 03:17:00;;;;;;;11.50;6.90;;;;;;;3.43;96.35;102544.38;5003262;28;20026;-69
2023/05/03 03:19:25;;;;;;;13.57;6.68;;;;;;;3.41;96.41;102531.63;4989430;28;20037;-69
2023/05/03 03:21:54;;;;;;;12.25;6.20;;;;;;;3.39;96.87;102527.44;5002307;28;20069;-69
2023/05/03 03:24:19;;;;;;;12.10;6.43;;;;;;;3.39;96.70;102532.56;4984819;28;20057;-69
2023/05/03 03:26:46;;;;;;;12.48;6.35;;;;;;;3.37;97.31;102530.09;5001415;28;20095;-69
2023/05/03 03:29:11;;;;;;;13.13;6.47;;;;;;;3.35;97.01;102518.22;4983773;28;20653;-69
2023/05/03 03:31:40;;;;;;;12.98;6.00;;;;;;;3.33;97.35;102523.41;5002178;28;20022;-68
2023/05/03 03:34:05;;;;;;;12.90;6.57;;;;;;;3.33;97.06;102522.56;4981610;28;20053;-68
2023/05/03 03:36:31;;;;;;;13.52;6.72;;;;;;;3.32;97.19;102524.31;5003112;28;20033;-68
2023/05/03 03:38:57;;;;;;;12.02;6.80;;;;;;;3.29;97.33;102524.44;5000800;28;20103;-68
2023/05/03 03:41:24;;;;;;;10.98;6.55;;;;;;;3.26;97.07;102524.59;5001830;28;20022;-69
2023/05/03 03:43:51;;;;;;;11.48;6.35;;;;;;;3.22;97.41;102518.75;4968365;28;20107;-69
2023/05/03 03:46:18;;;;;;;15.27;7.22;;;;;;;3.19;97.19;102518.06;4968331;28;20091;-68
2023/05/03 03:48:47;;;;;;;12.77;6.47;;;;;;;3.15;97.45;102512.22;5001388;28;20050;-69
2023/05/03 03:51:13;;;;;;;14.88;6.90;;;;;;;3.14;97.71;102507.16;5004229;28;20088;-68
2023/05/03 03:53:44;;;;;;;15.50;6.72;;;;;;;3.12;97.88;102500.34;5004320;28;20038;-69
2023/05/03 03:56:09;;;;;;;16.38;6.45;;;;;;;3.14;97.70;102504.59;5004830;28;20041;-69
2023/05/03 03:58:35;;;;;;;11.80;6.07;;;;;;;3.09;97.88;102490.25;5005244;28;20058;-69
2023/05/03 04:01:03;;;;;;;15.60;7.13;;;;;;;3.09;97.97;102497.13;4991739;28;20022;-69
2023/05/03 04:03:29;;;;;;;11.70;6.22;;;;;;;3.08;98.47;102492.88;4972524;28;20084;-68
2023/05/03 04:05:55;;;;;;;16.70;7.07;;;;;;;3.12;98.29;102505.47;5005482;28;20033;-68
2023/05/03 04:08:21;;;;;;;12.98;5.95;;;;;;;3.09;98.42;102512.50;4986583;28;20049;-69
2023/05/03 04:10:47;;;;;;;13.82;6.15;;;;;;;3.09;98.73;102517.63;4988453;28;20026;-69
2023/05/03 04:13:13;;;;;;;14.90;7.00;;;;;;;3.09;98.97;102515.06;4987419;28;20048;-68
2023/05/03 04:15:39;;;;;;;13.95;6.97;;;;;;;3.08;99.06;102519.34;4984529;28;20026;-68
2023/05/03 04:18:05;;;;;;;13.48;6.60;;;;;;;3.09;98.97;102522.75;4998813;28;20400;-69
2023/05/03 04:20:33;;;;;;;10.82;6.63;;;;;;;3.07;99.27;102529.66;4989452;28;20150;-69
2023/05/03 04:23:00;;;;;;;12.75;7.03;;;;;;;3.08;99.08;102536.44;5002366;28;22979;-69
2023/05/03 04:25:30;;;;;;;16.30;6.72;;;;;;;3.09;99.06;102535.56;5005216;28;20034;-69
2023/05/03 04:28:00;;;;;;;11.30;6.78;;;;;;;3.10;99.28;102542.34;4988238;28;20033;-69
2023/05/03 04:30:28;;;;;;;15.25;6.28;;;;;;;3.10;99.49;102544.91;5006990;28;20048;-69
2023/05/03 04:32:58;;;;;;;13.82;6.30;;;;;;;3.10;99.57;102539.78;4990894;28;20049;-69
2023/05/03 04:35:25;;;;;;;14.43;6.85;;;;;;;3.12;99.37;102541.38;5006655;28;20041;-68
2023/05/03 04:37:50;;;;;;;13.27;6.90;;;;;;;3.16;99.24;102546.38;5004119;28;20488;-69
2023/05/03 04:40:20;;;;;;;12.30;6.35;;;;;;;3.15;99.74;102537.03;5004266;28;20089;-69
2023/05/03 04:42:52;;;;;;;13.70;6.65;;;;;;;3.17;99.81;102540.38;4987629;28;20049;-69
2023/05/03 04:45:19;;;;;;;14.82;6.15;;;;;;;3.18;99.90;102539.44;5006117;28;20021;-69
2023/05/03 04:47:45;;;;;;;12.60;6.45;;;;;;;3.19;99.76;102544.53;4986167;28;20068;-71
2023/05/03 04:50:11;;;;;;;13.65;6.43;;;;;;;3.21;100.00;102539.34;5007352;28;20472;-69
2023/05/03 04:52:40;;;;;;;15.25;8.02;;;;;;;3.24;100.00;102541.75;5006135;28;20054;-69
2023/05/03 04:55:06;;;;;;;17.50;7.35;;;;;;;3.26;100.00;102543.38;5005010;28;20073;-69
2023/05/03 04:57:33;;;;;;;15.05;7.20;;;;;;;3.27;100.00;102547.56;4999930;28;20042;-69
2023/05/03 04:59:58;;;;;;;14.93;8.00;;;;;;;3.30;100.00;102544.06;5004770;28;20492;-69
2023/05/03 05:02:25;;;;;;;15.48;6.97;;;;;;;3.35;100.00;102543.84;5006121;28;20042;-68
2023/05/03 05:04:51;;;;;;;14.45;7.22;;;;;;;3.37;100.00;102548.03;5004365;28;20037;-70
2023/05/03 05:07:17;;;;;;;13.63;6.75;;;;;;;3.39;100.00;102556.50;5006017;28;20507;-69
2023/05/03 05:09:44;;;;;;;15.93;7.25;;;;;;;3.42;100.00;102561.47;5004913;28;21816;-69
2023/05/03 05:12:10;;;;;;;12.40;6.50;;;;;;;3.47;100.00;102571.56;5003986;28;20053;-69
2023/05/03 05:14:38;;;;;;;18.55;8.63;;;;;;;3.56;100.00;102576.28;5004204;28;20069;-69
2023/05/03 05:17:06;;;;;;;16.85;7.15;;;;;;;3.60;100.00;102572.69;5004200;28;20037;-69
2023/05/03 05:19:32;;;;;;;19.02;7.15;;;;;;;3.65;100.00;102580.16;5005505;28;20037;-69
2023/05/03 05:21:57;;;;;;;11.85;7.50;;;;;;;3.74;100.00;102582.31;4990924;28;20076;-69
2023/05/03 05:24:28;;;;;;;16.88;8.85;;;;;;;3.84;99.85;102582.75;5004022;28;20427;-69
2023/05/03 05:26:54;;;;;;;15.07;7.30;;;;;;;3.90;100.00;102591.00;5006980;28;20044;-69
2023/05/03 05:29:20;;;;;;;11.45;6.85;;;;;;;3.97;99.84;102578.72;4987791;28;20045;-68
2023/05/03 05:31:46;;;;;;;16.25;7.88;;;;;;;4.03;99.01;102580.19;4989787;28;20029;-68
2023/05/03 05:34:12;;;;;;;19.27;8.07;;;;;;;4.15;98.30;102581.38;4986850;28;20408;-69
2023/05/03 05:36:37;;;;;;;16.38;7.43;;;;;;;4.24;97.43;102583.53;5003647;28;20484;-69
2023/05/03 05:39:04;;;;;;;18.88;8.45;;;;;;;4.24;96.88;102583.53;4989608;28;20518;-68
2023/05/03 05:41:31;;;;;;;12.60;7.10;;;;;;;4.27;97.31;102584.19;4986825;28;20057;-69
2023/05/03 05:43:58;;;;;;;14.90;8.05;;;;;;;4.29;97.74;102584.13;4985987;28;20092;-69
2023/05/03 05:46:24;;;;;;;16.23;8.40;;;;;;;4.37;98.13;102592.31;4989214;28;20045;-69
2023/05/03 05:48:52;;;;;;;14.90;7.88;;;;;;;4.43;98.61;102591.19;5003406;28;20080;-70
2023/05/03 05:51:21;;;;;;;20.70;8.45;;;;;;;4.69;97.01;102584.81;4985275;28;20477;-69
2023/05/03 05:53:47;;;;;;;26.02;8.30;;;;;;;4.88;96.31;102592.47;5004293;28;20049;-69
2023/05/03 05:56:14;;;;;;;17.02;8.07;;;;;;;5.12;94.47;102587.00;4987798;28;20041;-69
2023/05/03 05:58:39;;;;;;;16.77;7.57;;;;;;;5.45;93.09;102587.88;5002959;28;20042;-69
2023/05/03 06:01:06;;;;;;;14.38;7.40;;;;;;;5.82;90.78;102587.69;4970576;28;20076;-69
2023/05/03 06:03:35;;;;;;;15.13;7.43;;;;;;;6.13;88.69;102586.91;4986095;28;20099;-70
2023/05/03 06:06:03;;;;;;;14.48;8.27;;;;;;;6.46;87.95;102582.56;4987699;28;20040;-69
2023/05/03 06:08:28;;;;;;;13.35;6.43;;;;;;;6.71;85.97;102587.19;4986802;28;20037;-69
2023/05/03 06:10:54;;;;;;;14.10;7.20;;;;;;;6.93;84.07;102590.19;5002266;28;20038;-69
2023/05/03 06:13:21;;;;;;;18.23;7.50;;;;;;;6.93;81.96;102594.50;4987485;28;20489;-69
2023/05/03 06:15:47;;;;;;;19.45;7.05;;;;;;;7.13;81.26;102596.75;4988349;28;20034;-69
2023/05/03 06:18:13;;;;;;;10.88;6.72;;;;;;;7.42;81.32;102594.19;5003012;28;20096;-69
2023/05/03 06:20:39;;;;;;;16.02;7.00;;;;;;;7.62;79.92;102600.75;5002892;28;20507;-69
2023/05/03 06:23:05;;;;;;;18.13;7.30;;;;;;;7.69;79.66;102599.47;4987011;28;20061;-69
2023/05/03 06:25:30;;;;;;;15.15;6.78;;;;;;;7.87;78.55;102602.66;4989254;28;20033;-69
2023/05/03 06:27:57;;;;;;;15.55;6.90;;;;;;;8.14;78.28;102599.31;4982613;28;20116;-69
2023/05/03 06:30:27;;;;;;;16.48;6.80;;;;;;;8.21;77.27;102599.75;5005656;28;20029;-69
2023/05/03 06:32:54;;;;;;;12.32;6.15;;;;;;;8.19;77.87;102594.66;4986384;28;20091;-69
2023/05/03 06:35:20;;;;;;;14.30;6.72;;;;;;;8.38;78.13;102602.94;5002516;28;20492;-69
2023/05/03 06:37:47;;;;;;;11.68;6.50;;;;;;;8.25;77.09;102598.63;5002480;28;20029;-69
2023/05/03 06:40:18;;;;;;;17.73;7.15;;;;;;;7.99;77.24;102593.34;4991433;28;20038;-69
2023/05/03 06:42:44;;;;;;;32.47;12.40;;;;;;;7.86;76.38;102602.78;5004774;28;20128;-69
2023/05/03 06:45:18;;;;;;;11.88;6.63;;;;;;;7.85;77.91;102583.03;5003287;28;20127;-69
2023/05/03 06:47:44;;;;;;;14.35;6.47;;;;;;;7.80;78.81;102597.06;5003346;28;20037;-69
2023/05/03 06:50:09;;;;;;;18.50;6.28;;;;;;;7.86;79.01;102590.69;5005181;28;20099;-69
2023/05/03 06:52:35;;;;;;;17.17;6.45;;;;;;;7.95;79.44;102591.88;5002038;28;20038;-69
2023/05/03 06:55:01;;;;;;;12.70;6.72;;;;;;;8.25;79.15;102589.13;4986636;28;20046;-69
2023/05/03 06:57:26;;;;;;;14.50;7.68;;;;;;;8.61;75.78;102589.47;4988446;28;20034;-69
2023/05/03 06:59:51;;;;;;;16.02;6.53;;;;;;;9.02;73.61;102589.34;5004504;28;20092;-69
2023/05/03 07:02:17;;;;;;;19.42;7.22;;;;;;;9.49;72.67;102585.31;4987462;28;20484;-69
2023/05/03 07:04:43;;;;;;;14.02;6.95;;;;;;;9.81;68.68;102581.41;5002789;28;20086;-69
2023/05/03 07:07:08;;;;;;;15.18;7.28;;;;;;;10.55;66.25;102577.03;5004842;28;20033;-68
2023/05/03 07:09:34;;;;;;;22.48;5.80;;;;;;;11.39;63.93;102571.59;5004311;28;20100;-70
2023/05/03 07:12:00;;;;;;;15.95;5.78;;;;;;;11.96;61.47;102573.25;5005053;28;20041;-70
2023/05/03 07:14:26;;;;;;;12.80;5.25;;;;;;;11.68;60.07;102582.34;4986849;28;20030;-70
2023/05/03 07:16:51;;;;;;;13.98;6.15;;;;;;;12.17;57.31;102577.69;5005393;28;20080;-70
2023/05/03 07:19:17;;;;;;;9.52;5.32;;;;;;;11.72;58.25;102588.97;4986610;28;20050;-70
2023/05/03 07:21:42;;;;;;;18.25;5.72;;;;;;;12.16;57.14;102576.00;5004613;28;20041;-70
2023/05/03 07:24:11;;;;;;;15.77;6.38;;;;;;;12.52;57.46;102572.19;4990308;28;20547;-70
2023/05/03 07:26:37;;;;;;;11.60;5.25;;;;;;;12.97;55.51;102569.34;5007746;28;20037;-70
2023/05/03 07:29:02;;;;;;;14.93;5.80;;;;;;;13.26;54.22;102566.06;5007945;28;20041;-70
2023/05/03 07:31:28;;;;;;;13.05;5.47;;;;;;;13.51;53.38;102564.00;5009643;28;20057;-69
2023/05/03 07:33:54;;;;;;;9.30;4.85;;;;;;;13.48;52.83;102562.47;5007030;28;20046;-70
2023/05/03 07:36:19;;;;;;;12.85;5.10;;;;;;;13.60;53.36;102558.00;5004437;28;20161;-69
2023/05/03 07:38:45;;;;;;;13.23;5.15;;;;;;;13.94;53.72;102545.44;5002730;28;20066;-70
2023/05/03 07:41:10;;;;;;;9.15;5.15;;;;;;;14.56;52.25;102545.97;5005275;28;20092;-70
2023/05/03 07:43:36;;;;;;;12.60;5.32;;;;;;;14.51;50.08;102539.50;5004560;28;20037;-70
2023/05/03 07:46:02;;;;;;;7.05;4.13;;;;;;;14.51;50.26;102537.72;5005804;28;20392;-70
2023/05/03 07:48:27;;;;;;;12.23;4.22;;;;;;;15.03;49.71;102547.81;5007138;28;20535;-69
2023/05/03 07:50:53;;;;;;;12.43;4.35;;;;;;;14.14;47.69;102540.22;4993674;28;20624;-68
2023/05/03 07:53:19;;;;;;;8.90;4.43;;;;;;;14.29;49.97;102535.41;4989336;28;20149;-69
2023/05/03 07:55:44;;;;;;;12.07;4.70;;;;;;;14.75;48.97;102526.03;4990415;28;20060;-69
2023/05/03 07:58:10;;;;;;;14.02;5.13;;;;;;;14.96;48.43;102525.81;5004353;28;20412;-70
2023/05/03 08:00:35;;;;;;;8.25;4.35;;;;;;;14.98;47.61;102526.50;5007683;28;20022;-69
2023/05/03 08:03:03;;;;;;;8.55;4.78;;;;;;;14.51;46.87;102526.47;5006372;28;20432;-69
2023/05/03 08:05:28;;;;;;;9.57;4.53;;;;;;;14.99;46.61;102528.97;5009581;28;20026;-69
2023/05/03 08:07:54;;;;;;;8.00;4.63;;;;;;;15.39;46.01;102532.25;5002183;28;20041;-69
2023/05/03 08:10:20;;;;;;;10.88;4.03;;;;;;;15.52;45.29;102532.72;4988019;28;20041;-70
2023/05/03 08:12:45;;;;;;;10.43;4.18;;;;;;;15.80;46.38;102534.50;4987403;28;20049;-70
2023/05/03 08:15:11;;;;;;;7.00;4.05;;;;;;;15.24;44.03;102537.13;5008322;28;20076;-70
2023/05/03 08:17:44;;;;;;;9.10;4.38;;;;;;;15.44;43.63;102530.00;5006514;28;20443;-69
2023/05/03 08:20:11;;;;;;;9.43;3.67;;;;;;;15.95;44.10;102528.59;4984092;28;20052;-69
2023/05/03 08:22:37;;;;;;;8.45;3.85;;;;;;;16.27;42.47;102524.59;5005222;28;20038;-69
2023/05/03 08:25:03;;;;;;;14.30;3.63;;;;;;;16.15;41.87;102528.44;4988804;28;20046;-70
2023/05/03 08:27:32;;;;;;;7.80;3.70;;;;;;;16.53;43.08;102529.03;5005245;28;20064;-69
2023/05/03 08:30:01;;;;;;;5.03;3.15;;;;;;;16.51;41.46;102521.34;5006704;28;20030;-69
2023/05/03 08:32:27;;;;;;;4.65;3.10;;;;;;;16.45;41.47;102519.34;5005763;28;20335;-69
2023/05/03 08:34:54;;;;;;;4.78;2.85;;;;;;;16.52;39.65;102511.72;5006074;28;20138;-69
2023/05/03 08:37:23;;;;;;;9.15;3.22;;;;;;;16.80;40.96;102516.75;5004502;28;20067;-69
2023/05/03 08:39:49;;;;;;;9.55;3.95;;;;;;;16.58;41.08;102510.28;5001525;28;20053;-69
2023/05/03 08:42:14;;;;;;;7.25;3.33;;;;;;;16.68;40.45;102510.97;5007712;28;20488;-70
2023/05/03 08:44:47;;;;;;;9.52;3.28;;;;;;;16.32;41.37;102514.50;5006093;28;20050;-70
2023/05/03 08:47:16;;;;;;;12.70;3.97;;;;;;;16.16;41.02;102514.38;5007262;28;20065;-70
2023/05/03 08:49:46;;;;;;;7.68;3.85;;;;;;;16.40;41.26;102518.97;4985709;28;20427;-70
2023/05/03 08:52:14;;;;;;;9.05;3.92;;;;;;;16.31;41.56;102512.03;4989709;28;20699;-70
2023/05/03 08:54:40;;;;;;;6.57;3.33;;;;;;;16.01;42.25;102511.50;4989107;28;20429;-70
2023/05/03 08:57:13;;;;;;;7.38;3.53;;;;;;;15.88;42.20;102511.88;5005728;28;20056;-70
2023/05/03 09:00:09;;;;;;;9.15;3.67;;;;;;;16.11;42.43;102499.13;5005631;28;20555;-69
2023/05/03 09:02:37;;;;;;;6.32;3.47;;;;;;;15.84;42.01;102505.28;5005531;28;20112;-70
2023/05/03 09:05:15;;;;;;;4.45;3.10;;;;;;;15.68;41.62;102502.47;4988493;28;20046;-69
2023/05/03 09:08:01;;;;;;;6.28;3.38;;;;;;;15.98;41.07;102484.81;5007519;28;20036;-70
2023/05/03 09:10:26;;;;;;;5.35;3.45;;;;;;;16.44;41.95;102478.41;5007575;28;20052;-70
2023/05/03 09:12:58;;;;;;;8.43;3.17;;;;;;;16.91;41.23;102482.47;5004762;28;20041;-70
2023/05/03 09:15:25;;;;;;;5.82;3.42;;;;;;;16.71;42.33;102494.97;4987566;28;20030;-70
2023/05/03 09:18:15;;;;;;;7.78;3.78;;;;;;;16.57;41.04;102485.03;4992208;28;20520;-70
2023/05/03 09:20:54;;;;;;;6.40;3.22;;;;;;;16.93;42.23;102485.75;5005075;28;20092;-70
2023/05/03 09:23:25;;;;;;;7.65;2.88;;;;;;;16.98;40.64;102486.09;5002641;28;20053;-69
2023/05/03 09:25:51;;;;;;;10.25;3.13;;;;;;;17.23;40.38;102486.19;4989066;28;20057;-70
2023/05/03 09:28:18;;;;;;;6.63;3.28;;;;;;;16.64;39.88;102492.13;5002938;28;20517;-70
2023/05/03 09:30:45;;;;;;;8.55;4.07;;;;;;;16.69;40.08;102495.09;5005683;28;20500;-69
2023/05/03 09:33:11;;;;;;;9.00;3.70;;;;;;;16.65;41.23;102491.16;4986913;28;20679;-70
2023/05/03 09:35:37;;;;;;;6.65;3.45;;;;;;;16.36;40.71;102488.84;5004525;28;20072;-70
2023/05/03 09:38:03;;;;;;;6.57;3.78;;;;;;;16.58;41.19;102489.31;4984859;28;20041;-70
2023/05/03 09:40:29;;;;;;;6.38;3.58;;;;;;;16.65;41.67;102478.06;5006186;28;20052;-70
2023/05/03 09:43:07;;;;;;;9.00;3.20;;;;;;;16.93;41.50;102483.97;5000497;28;20085;-70
2023/05/03 09:45:34;;;;;;;6.95;3.63;;;;;;;16.74;41.69;102478.91;5001130;28;20063;-70
2023/05/03 09:48:04;;;;;;;7.50;3.72;;;;;;;16.62;42.34;102475.75;5004589;28;20832;-70
2023/05/03 09:50:34;;;;;;;8.27;3.25;;;;;;;16.70;41.44;102464.50;5005235;28;20021;-70
2023/05/03 09:53:07;;;;;;;6.55;3.65;;;;;;;16.19;41.53;102464.34;4975661;28;20033;-69
2023/05/03 09:55:36;;;;;;;8.35;3.80;;;;;;;15.83;43.01;102453.13;5004389;28;20756;-70
2023/05/03 09:58:07;;;;;;;11.73;3.85;;;;;;;15.44;44.11;102451.56;4987194;28;20586;-70
2023/05/03 10:00:37;;;;;;;10.50;3.80;;;;;;;15.92;42.82;102449.59;5005198;28;20395;-70
2023/05/03 10:03:09;;;;;;;10.85;3.47;;;;;;;16.45;43.87;102456.50;5002989;28;20519;-70
2023/05/03 10:05:47;;;;;;;5.70;3.65;;;;;;;16.68;41.23;102453.34;4999622;28;20065;-69
2023/05/03 10:08:31;;;;;;;6.00;3.30;;;;;;;16.75;40.51;102451.75;4984747;28;20050;-70
2023/05/03 10:10:57;;;;;;;9.20;4.00;;;;;;;16.19;39.89;102453.06;5003544;28;20227;-70
2023/05/03 10:13:23;;;;;;;5.78;3.58;;;;;;;16.63;41.80;102455.63;4985310;28;20485;-70
2023/05/03 10:16:00;;;;;;;7.22;3.95;;;;;;;16.39;41.10;102459.75;5004484;28;20041;-69
2023/05/03 10:18:30;;;;;;;8.05;4.10;;;;;;;16.76;41.74;102461.25;4999246;28;20045;-69
2023/05/03 10:21:13;;;;;;;9.55;4.65;;;;;;;16.64;40.62;102454.66;4985808;28;20048;-70
2023/05/03 10:24:07;;;;;;;;;;;;;;;16.30;40.97;102455.44;4984388;28;20556;-70
2023/05/03 10:26:33;;;;;;;10.00;4.10;;;;;;;16.79;41.66;102454.91;5001073;28;19913;-69
2023/05/03 10:29:01;;;;;;;10.23;4.50;;;;;;;16.54;40.31;102458.19;4985904;28;20523;-70
2023/05/03 10:31:46;;;;;;;6.80;3.75;;;;;;;16.28;41.79;102454.78;5002878;28;20030;-70
2023/05/03 10:34:23;;;;;;;9.23;4.28;;;;;;;16.21;40.86;102446.69;5002082;28;20033;-70
2023/05/03 10:36:52;;;;;;;6.70;4.10;;;;;;;16.26;40.77;102441.84;5003014;28;20041;-70
2023/05/03 10:39:21;;;;;;;9.48;3.90;;;;;;;16.18;42.42;102439.19;4983307;28;20124;-70
2023/05/03 10:42:03;;;;;;;7.75;3.65;;;;;;;16.44;40.66;102443.56;4999816;28;20056;-70
2023/05/03 10:44:47;;;;;;;7.18;3.00;;;;;;;16.92;41.47;102443.00;4997098;28;20494;-70
2023/05/03 10:47:15;;;;;;;9.10;3.30;;;;;;;16.82;39.35;102455.44;5002821;28;20045;-70
2023/05/03 10:49:41;;;;;;;6.32;3.30;;;;;;;17.20;39.86;102434.91;5002244;28;20141;-70
2023/05/03 10:52:34;;;;;;;10.82;4.28;;;;;;;16.71;40.23;102440.78;4986943;28;20056;-70
2023/05/03 10:55:01;;;;;;;12.05;3.88;;;;;;;16.93;41.33;102436.81;5001080;28;20409;-70
2023/05/03 10:57:31;;;;;;;8.27;3.70;;;;;;;16.81;40.49;102438.03;4988156;28;20057;-70
2023/05/03 10:59:57;;;;;;;9.18;4.20;;;;;;;16.92;40.74;102427.28;4999468;28;20519;-69
2023/05/03 11:02:31;;;;;;;5.97;3.38;;;;;;;17.16;40.87;102427.53;5001467;28;20042;-70
2023/05/03 11:05:01;;;;;;;6.38;3.33;;;;;;;17.43;41.32;102424.63;5000684;28;20058;-70
2023/05/03 11:07:27;;;;;;;6.85;3.05;;;;;;;17.66;39.52;102414.31;4984916;28;20034;-70
2023/05/03 11:09:52;;;;;;;6.32;3.15;;;;;;;17.34;37.48;102411.69;4984835;28;20050;-69
2023/05/03 11:12:21;;;;;;;6.85;3.50;;;;;;;17.35;38.87;102410.69;5000899;28;20428;-69
2023/05/03 11:14:49;;;;;;;10.35;3.53;;;;;;;17.23;39.92;102412.81;4983110;28;20030;-70
2023/05/03 11:17:15;;;;;;;8.75;3.92;;;;;;;17.06;39.64;102404.09;5003256;28;20029;-70
2023/05/03 11:19:43;;;;;;;7.32;3.13;;;;;;;17.21;41.62;102399.84;5000201;28;20497;-70
2023/05/03 11:22:08;;;;;;;8.82;3.20;;;;;;;17.67;39.27;102397.59;5002520;28;20038;-70
2023/05/03 11:24:34;;;;;;;9.30;3.20;;;;;;;17.90;39.74;102397.78;5000183;28;20065;-70
2023/05/03 11:27:00;;;;;;;8.95;3.80;;;;;;;17.83;39.28;102394.16;5000831;28;20033;-70
2023/05/03 11:29:28;;;;;;;5.90;3.05;;;;;;;18.18;38.55;102392.16;5001368;28;20120;-70